aviador You're here:

KCMX Decoded Metar

HANCOCK in MI, USA
Report Time2018-02-22 11:53:00
UTC Time2018-02-22 12:24:37
Flight Rules vfr VFR
Wind240° at 03 kt
W.Decomp.*RWY 25: 3.0 kt HW 0.4 kt LCW
RWY 31: 1.1 kt HW 2.8 kt LCW
W.Rank240° ranks 28
Current wind is below 240° avg. (7.5)
Visibility9999 m
Phenomena:N/A
Clouds:N/A
Expected CloudBase > 1,600 ft AGL from Temp-Dew spread
CeilingNone
Temp-14°C (ISA -27)
Dew Point-18°C (72% RH)
AAT-18.6°C
QNH1037 hPa
Density Alt-3,110 ft
Elevation1,070 ft
Report Wrong Elevation
Raw Report
KCMX 221153Z AUTO 24003KT 10SM CLR M14/M18 A3061 RMK AO2 SLP393
T11441178 11100 21189 53001=

Extra information for KCMX:More info

Metar Taf Metar & Taf Last 4 Metars F.Rules Stats Wind Profile Meteogram Temp Stats Airport Information Weather charts Add Link Nearby VenuesMetar ALERT Operation Metar Decoded Social comments

AIRNAV info for KCMX